Englewood, Illinois
Current Conditions -  °F | °C
As of 4:53 AM on Thursday 23 Oct 2014 (Local Time) from KMDW Reporting Station
Few Clouds Few Clouds  
Wind Chill: 38°   Ceiling: Unl
Heat Index: 42°   Visibility: 8mi
Dew Point: 38°   Wind: 7mph
Humidity: 85%   Direction: 170°S
Pressure: 30.22"   Gusts: NA
Location:  41.7763°N, 87.6399°W
Report Text: KMDW 230953Z 17006KT 8SM FEW300 06/03 A3022 RMK AO2 SLP239 T00560033
Loading
Personal Weather Stations






























Interactive Weather Map
Tropical Storm Tracking
New forecast layout! Learn more

10-Day Weather Forecast

Advertisements
Track Severe Weather on mobile